createdAt,value
2019-06-20T00:01:15.930Z,19.7
2019-06-20T00:06:18.355Z,19.7
2019-06-20T00:11:20.895Z,19.6
2019-06-20T00:16:23.238Z,19.5
2019-06-20T00:21:25.694Z,19.4
2019-06-20T00:26:28.122Z,19.3
2019-06-20T00:31:30.564Z,19.1
2019-06-20T00:36:33.014Z,19
2019-06-20T00:41:35.478Z,18.9
2019-06-20T00:46:37.919Z,18.8
2019-06-20T00:51:40.345Z,18.8
2019-06-20T00:56:42.777Z,18.7
2019-06-20T01:01:45.221Z,18.6
2019-06-20T01:06:47.652Z,18.6
2019-06-20T01:11:50.088Z,18.6
2019-06-20T01:16:52.588Z,18.5
2019-06-20T01:21:55.049Z,18.5
2019-06-20T01:26:57.426Z,18.4
2019-06-20T01:31:59.861Z,18.4
2019-06-20T01:37:02.291Z,18.3
2019-06-20T01:47:07.181Z,18.2
2019-06-20T01:52:09.650Z,18.1
2019-06-20T01:57:12.071Z,18.1
2019-06-20T02:02:14.496Z,18.1
2019-06-20T02:07:17.014Z,18
2019-06-20T02:12:19.371Z,18
2019-06-20T02:17:21.933Z,17.9
2019-06-20T02:22:24.253Z,17.9
2019-06-20T02:27:26.757Z,17.9
2019-06-20T02:32:29.207Z,17.8
2019-06-20T02:37:31.602Z,17.8
2019-06-20T02:42:34.027Z,17.7
2019-06-20T02:47:36.462Z,17.7
2019-06-20T02:52:38.911Z,17.7
2019-06-20T02:57:41.344Z,17.7
2019-06-20T03:02:43.796Z,17.7
2019-06-20T03:07:46.228Z,17.7
2019-06-20T03:12:49.141Z,17.6
2019-06-20T03:17:51.179Z,17.6
2019-06-20T03:22:53.756Z,17.7
2019-06-20T03:27:55.990Z,17.8
2019-06-20T03:32:58.465Z,17.9
2019-06-20T03:38:00.880Z,17.9
2019-06-20T03:43:03.310Z,17.9
2019-06-20T03:48:05.898Z,18.1
2019-06-20T03:53:08.200Z,18.3
2019-06-20T03:58:10.649Z,18.4
2019-06-20T04:03:13.092Z,18.5
2019-06-20T04:08:15.508Z,18.6
2019-06-20T04:13:17.945Z,18.8
2019-06-20T04:18:20.393Z,19.1
2019-06-20T04:23:22.833Z,19.4
2019-06-20T04:28:25.273Z,19.5
2019-06-20T04:33:27.764Z,19.6
2019-06-20T04:38:30.212Z,19.6
2019-06-20T04:43:32.624Z,19.5
2019-06-20T04:53:37.498Z,19.3
2019-06-20T04:58:39.917Z,19.3
2019-06-20T05:03:42.361Z,19.2
2019-06-20T05:08:44.905Z,19.2
2019-06-20T05:13:47.308Z,19.2
2019-06-20T05:18:49.758Z,19.2
2019-06-20T05:23:52.125Z,19.2
2019-06-20T05:28:54.565Z,19.3
2019-06-20T05:33:57.012Z,19.3
2019-06-20T05:38:59.559Z,19.4
2019-06-20T05:44:01.925Z,19.6
2019-06-20T05:49:04.470Z,19.7
2019-06-20T05:54:06.768Z,19.8
2019-06-20T05:59:09.217Z,19.8
2019-06-20T06:04:11.666Z,19.8
2019-06-20T06:09:14.114Z,19.8
2019-06-20T06:14:16.540Z,19.8
2019-06-20T06:19:19.000Z,19.8
2019-06-20T06:24:21.465Z,19.9
2019-06-20T06:29:23.886Z,19.9
2019-06-20T06:34:26.311Z,20
2019-06-20T06:39:28.740Z,20
2019-06-20T06:44:31.834Z,20.1
2019-06-20T06:49:33.681Z,20.2
2019-06-20T06:54:36.249Z,20.3
2019-06-20T06:59:38.505Z,20.5
2019-06-20T07:04:40.989Z,20.7
2019-06-20T07:09:43.414Z,20.8
2019-06-20T07:14:45.830Z,20.9
2019-06-20T07:19:48.295Z,20.9
2019-06-20T07:24:50.711Z,20.9
2019-06-20T07:29:53.288Z,20.9
2019-06-20T07:34:55.809Z,21.1
2019-06-20T07:39:58.075Z,21.1
2019-06-20T07:45:00.550Z,21.2
2019-06-20T07:50:02.955Z,21.2
2019-06-20T07:55:05.367Z,21.2
2019-06-20T08:00:07.851Z,21.1
2019-06-20T08:05:10.284Z,21.1
2019-06-20T08:10:12.724Z,21
2019-06-20T08:15:16.051Z,21.1
2019-06-20T08:20:17.740Z,21.1
2019-06-20T08:25:19.997Z,21.1
2019-06-20T08:30:22.519Z,21.1
2019-06-20T08:35:24.922Z,21.2
2019-06-20T08:40:27.428Z,21.1
2019-06-20T08:45:29.800Z,21.2
2019-06-20T08:50:32.276Z,21.4
2019-06-20T08:55:34.663Z,21.6
2019-06-20T09:00:37.197Z,21.8
2019-06-20T09:05:39.614Z,22
2019-06-20T09:10:41.993Z,22.1
2019-06-20T09:15:44.457Z,22.4
2019-06-20T09:20:46.956Z,22.6
2019-06-20T09:25:49.393Z,22.8
2019-06-20T09:30:52.244Z,23
2019-06-20T09:35:55.481Z,23.3
2019-06-20T09:40:56.883Z,23.5
2019-06-20T09:45:59.130Z,23.6
2019-06-20T09:51:01.628Z,23.7
2019-06-20T09:56:03.961Z,23.6
2019-06-20T10:01:06.461Z,23.6
2019-06-20T10:06:13.625Z,23.6
2019-06-20T10:11:11.411Z,23.5
2019-06-20T10:16:13.767Z,23.5
2019-06-20T10:21:16.204Z,23.7
2019-06-20T10:26:18.792Z,23.8
2019-06-20T10:31:21.219Z,23.8
2019-06-20T10:36:23.558Z,23.8
2019-06-20T10:41:25.966Z,24
2019-06-20T10:46:28.435Z,24.1
2019-06-20T10:51:30.976Z,24.1
2019-06-20T10:56:33.260Z,24.1
2019-06-20T11:01:35.723Z,24.3
2019-06-20T11:06:39.869Z,24.8
2019-06-20T11:11:41.710Z,25.1
2019-06-20T11:16:43.555Z,25.2
2019-06-20T11:21:45.743Z,24.9
2019-06-20T11:26:48.018Z,24.8
2019-06-20T11:31:50.390Z,24.7
2019-06-20T11:36:52.907Z,25.2
2019-06-20T11:41:55.245Z,25.7
2019-06-20T11:46:57.698Z,26.1
2019-06-20T11:52:00.201Z,26.1
2019-06-20T11:57:02.619Z,26
2019-06-20T12:02:05.112Z,26.3
2019-06-20T12:07:07.503Z,26.6
2019-06-20T12:12:10.074Z,26.2
2019-06-20T12:17:12.495Z,25.5
2019-06-20T12:22:14.850Z,24.9
2019-06-20T12:27:17.226Z,24.6
2019-06-20T12:32:19.769Z,25.3
2019-06-20T12:37:22.113Z,26.2
2019-06-20T12:42:24.757Z,26.4
2019-06-20T12:47:27.012Z,26.5
2019-06-20T12:52:29.476Z,27
2019-06-20T12:57:31.905Z,27.5
2019-06-20T13:02:34.338Z,27.2
2019-06-20T13:07:38.557Z,27.3
2019-06-20T13:12:40.632Z,27.4
2019-06-20T13:17:43.075Z,27.8
2019-06-20T13:22:44.765Z,28
2019-06-20T13:27:47.770Z,28.5
2019-06-20T13:32:49.383Z,28.9
2019-06-20T13:37:51.710Z,28.5
2019-06-20T13:42:54.781Z,28.1
2019-06-20T13:47:56.339Z,28.2
2019-06-20T13:52:58.761Z,28.7
2019-06-20T13:58:01.297Z,29
2019-06-20T14:03:03.722Z,29.1
2019-06-20T14:08:06.171Z,29.4
2019-06-20T14:13:18.545Z,29.8
2019-06-20T14:18:10.980Z,30.1
2019-06-20T14:23:13.390Z,30.3
2019-06-20T14:28:16.042Z,29.4
2019-06-20T14:33:18.275Z,28.4
2019-06-20T14:38:20.703Z,28
2019-06-20T14:43:23.277Z,27.7
2019-06-20T14:48:25.800Z,28.8
2019-06-20T14:53:28.112Z,29.2
2019-06-20T14:58:30.546Z,29.3
2019-06-20T15:03:33.015Z,29.8
2019-06-20T15:08:35.378Z,30.6
2019-06-20T15:18:40.256Z,33.1
2019-06-20T15:23:42.694Z,34.5
2019-06-20T15:28:46.175Z,35.3
2019-06-20T15:33:49.180Z,36
2019-06-20T15:38:51.046Z,36.9
2019-06-20T15:43:53.725Z,37.5
2019-06-20T15:48:54.933Z,37.5
2019-06-20T15:53:57.394Z,37.5
2019-06-20T15:58:59.829Z,37.1
2019-06-20T16:04:02.311Z,37.7
2019-06-20T16:09:07.649Z,38.4
2019-06-20T16:14:07.131Z,36.3
2019-06-20T16:19:09.638Z,33
2019-06-20T16:24:12.769Z,30.8
2019-06-20T16:29:14.440Z,29.3
2019-06-20T16:34:17.027Z,28.8
2019-06-20T16:39:19.313Z,28.2
2019-06-20T16:44:21.955Z,27.5
2019-06-20T16:49:24.259Z,27
2019-06-20T16:54:26.658Z,26.7
2019-06-20T16:59:29.119Z,26.5
2019-06-20T17:09:33.966Z,26.3
2019-06-20T17:14:36.438Z,26.2
2019-06-20T17:19:42.032Z,26
2019-06-20T17:24:41.300Z,25.8
2019-06-20T17:29:43.738Z,25.6
2019-06-20T17:34:46.261Z,25.4
2019-06-20T17:39:48.652Z,25.3
2019-06-20T17:44:51.103Z,25.2
2019-06-20T17:49:53.617Z,25.1
2019-06-20T17:54:55.988Z,25
2019-06-20T17:59:58.384Z,24.9
2019-06-20T18:05:00.903Z,24.7
2019-06-20T18:10:03.270Z,24.6
2019-06-20T18:15:05.715Z,24.5
2019-06-20T18:20:08.166Z,24.4
2019-06-20T18:25:10.627Z,24.2
2019-06-20T18:30:13.099Z,24.1
2019-06-20T18:35:15.481Z,24
2019-06-20T18:40:17.930Z,23.8
2019-06-20T18:45:20.423Z,23.7
2019-06-20T18:50:22.893Z,23.6
2019-06-20T18:55:25.257Z,23.5
2019-06-20T19:00:34.426Z,23
2019-06-20T19:05:30.185Z,22
2019-06-20T19:10:33.722Z,21.7
2019-06-20T19:15:35.084Z,21.6
2019-06-20T19:20:37.477Z,21.5
2019-06-20T19:25:40.004Z,21.5
2019-06-20T19:30:42.390Z,21.4
2019-06-20T19:35:44.793Z,21.3
2019-06-20T19:40:47.267Z,21.2
2019-06-20T19:45:49.745Z,21.1
2019-06-20T19:50:52.122Z,21.1
2019-06-20T20:00:57.000Z,20.9
2019-06-20T20:05:59.500Z,20.8
2019-06-20T20:11:01.899Z,20.8
2019-06-20T20:16:04.335Z,20.8
2019-06-20T20:21:06.861Z,20.7
2019-06-20T20:26:09.199Z,20.8
2019-06-20T20:31:11.660Z,20.8
2019-06-20T20:36:24.235Z,20.8
2019-06-20T20:41:16.645Z,20.8
2019-06-20T20:46:18.989Z,20.7
2019-06-20T20:51:21.432Z,20.7
2019-06-20T20:56:23.868Z,20.6
2019-06-20T21:01:26.334Z,20.6
2019-06-20T21:06:28.745Z,20.5
2019-06-20T21:11:31.219Z,20.5
2019-06-20T21:16:33.884Z,20.4
2019-06-20T21:21:36.100Z,20.4
2019-06-20T21:26:48.710Z,20.3
2019-06-20T21:31:40.979Z,20.1
2019-06-20T21:36:43.435Z,20
2019-06-20T21:41:45.911Z,20
2019-06-20T21:46:48.267Z,19.9
2019-06-20T21:51:50.808Z,19.8
2019-06-20T21:56:53.162Z,19.8
2019-06-20T22:01:55.625Z,19.7
2019-06-20T22:06:58.085Z,19.7
2019-06-20T22:12:00.498Z,19.6
2019-06-20T22:17:02.927Z,19.6
2019-06-20T22:22:05.376Z,19.5
2019-06-20T22:27:07.806Z,19.5
2019-06-20T22:32:10.245Z,19.4
2019-06-20T22:37:12.698Z,19.4
2019-06-20T22:42:15.234Z,19.3
2019-06-20T22:47:17.560Z,19.3
2019-06-20T22:52:20.189Z,19.2
2019-06-20T22:57:22.455Z,19.2
2019-06-20T23:02:24.953Z,19.1
2019-06-20T23:07:27.469Z,19.1
2019-06-20T23:12:29.905Z,19
2019-06-20T23:17:32.223Z,18.9
2019-06-20T23:27:37.097Z,18.7
2019-06-20T23:32:39.548Z,18.6
2019-06-20T23:37:41.992Z,18.6
2019-06-20T23:42:44.432Z,18.6
2019-06-20T23:47:46.873Z,18.5
2019-06-20T23:52:49.283Z,18.6
2019-06-20T23:57:51.749Z,18.6
